Latest Weather Observations for Horn Island

IDQ60801

Issued at 9:02 am EST Tuesday 25 April 2017 (issued every 30 minutes, with the page automatically refreshed every 10 minutes)

About weather observations | Map of weather stations | Latest weather observations for QLD | Other Formats
Station Details ID: 027058 Name: HORN ISLAND Lat: -10.58 Lon: 142.29 Height: 4.0 m
Data from the previous 72 hours. | See also: Recent months at Horn Island
Date/Time
EST
Temp
°C
App
Temp
°C
Dew
Point
°C
Rel
Hum
%
Delta-T
°C
Wind Press
QNH
hPa
Press
MSL
hPa
Rain since
9am
mm
Dir  Spd
km/h
Gust
km/h
Spd
kts
Gust
kts
25/09:00am 23.4 - 23.7 - - E 24 37 13 20 1013.0 1013.0 84.4
25/08:48am 24.1 - 24.4 - - NE 30 59 16 32 1012.3 - 69.4
25/08:43am 25.0 - 25.5 - - S 30 39 16 21 1011.6 - 65.0
25/08:30am 25.1 - 25.4 - - S 28 39 15 21 1011.2 - 47.6
25/08:00am 25.1 - 25.4 - - S 22 32 12 17 1011.6 - 34.2
25/07:56am 25.0 - 25.3 - - SSE 22 32 12 17 1011.4 - 34.0
25/07:30am 25.1 - 25.4 - - SSE 26 39 14 21 1010.8 - 32.2
25/07:00am 25.3 - 25.5 - - SSE 17 24 9 13 1010.4 - 28.2
25/06:30am 26.2 - 26.5 - - SSE 9 13 5 7 1009.7 - 27.6
25/06:12am 26.3 - 26.6 - - S 15 20 8 11 1009.6 - 27.6
25/06:00am 26.3 - 26.6 - - SSE 13 19 7 10 1009.1 1009.1 27.6
25/05:30am 26.3 - 26.6 - - SE 13 17 7 9 1009.1 - 27.6
25/05:00am 26.2 - 26.5 - - SE 17 24 9 13 1008.8 - 27.6
25/04:30am 26.2 - 26.5 - - ESE 19 32 10 17 1008.8 - 26.6
25/04:00am 26.3 - 26.5 - - SE 17 22 9 12 1008.9 - 15.8
25/03:30am 26.2 - 26.4 - - SSE 13 19 7 10 1008.8 - 15.0
25/03:03am 26.2 - 26.4 - - SSE 9 13 5 7 1008.9 - 13.8
25/03:00am 26.1 - 26.3 - - SSE 7 13 4 7 1008.9 1008.9 13.8
25/02:52am 26.0 - 26.2 - - SSE 6 7 3 4 1009.0 - 13.6
25/02:30am 26.1 - 26.3 - - SE 9 15 5 8 1009.1 - 13.6
25/02:11am 26.2 - 26.4 - - SSE 15 20 8 11 1009.2 - 13.4
25/02:00am 26.1 30.4 26.1 100 0.0 SSE 15 20 8 11 1009.3 - 13.4
25/01:55am 26.2 30.6 26.2 100 0.0 SSE 15 19 8 10 1009.4 - 13.4
25/01:30am 26.3 30.7 26.3 100 0.0 SSE 15 20 8 11 1009.8 - 13.4
25/01:00am 26.3 29.0 26.3 100 0.0 SE 24 35 13 19 1010.2 - 13.4
25/12:30am 26.9 31.4 26.9 100 0.0 SE 17 20 9 11 1010.5 - 13.4
25/12:00am 26.9 31.8 26.9 100 0.0 SE 15 20 8 11 1010.8 1010.8 13.4
 
Date/Time
EST
Temp
°C
App
Temp
°C
Dew
Point
°C
Rel
Hum
%
Delta-T
°C
Wind Press
QNH
hPa
Press
MSL
hPa
Rain since
9am
mm
Dir  Spd
km/h
Gust
km/h
Spd
kts
Gust
kts
24/11:30pm 26.8 31.2 26.8 100 0.0 SE 17 20 9 11 1011.1 - 13.4
24/11:00pm 26.9 30.4 26.9 100 0.0 SE 22 32 12 17 1011.2 - 13.4
24/10:30pm 26.9 30.0 26.9 100 0.0 SE 24 33 13 18 1011.3 - 13.4
24/10:00pm 27.3 32.0 27.3 100 0.0 SE 17 26 9 14 1011.2 - 13.4
24/09:30pm 27.4 31.6 27.4 100 0.0 SE 20 30 11 16 1011.0 - 13.4
24/09:00pm 27.3 31.5 27.3 100 0.0 SE 20 26 11 14 1011.0 1011.0 13.4
24/08:30pm 27.2 31.3 27.2 100 0.0 SE 20 28 11 15 1010.7 - 13.4
24/08:00pm 27.2 31.5 27.2 100 0.0 SE 19 26 10 14 1010.3 - 13.4
24/07:30pm 27.1 31.3 27.1 100 0.0 SE 19 28 10 15 1009.9 - 13.4
24/07:00pm 27.2 30.9 27.2 100 0.0 SE 22 33 12 18 1009.6 - 13.4
24/06:30pm 27.0 31.0 27.0 100 0.0 SE 20 30 11 16 1009.3 - 13.4
24/06:00pm 27.1 30.8 27.1 100 0.0 SE 22 35 12 19 1009.2 1009.2 13.4
24/05:30pm 27.1 30.4 27.1 100 0.0 SE 24 35 13 19 1009.0 - 13.4
24/05:00pm 27.1 30.4 27.1 100 0.0 SE 24 35 13 19 1008.5 - 13.4
24/04:30pm 26.8 30.8 26.8 100 0.0 SE 19 30 10 16 1008.5 - 13.4
24/04:00pm 26.5 - 26.7 - - SE 19 24 10 13 1008.8 - 13.4
24/03:30pm 26.0 - 26.2 - - ESE 22 30 12 16 1008.9 - 13.4
24/03:19pm 25.9 - 26.1 - - ESE 22 30 12 16 1009.1 - 13.4
24/03:03pm 25.8 - 26.0 - - SE 19 30 10 16 1009.1 - 13.2
24/03:00pm 25.8 - 26.0 - - SE 17 24 9 13 1009.1 1009.1 13.2
24/02:30pm 25.6 - 25.8 - - SE 17 22 9 12 1009.5 - 11.8
24/02:24pm 25.7 - 25.9 - - SE 17 22 9 12 1009.5 - 11.6
24/02:00pm 25.5 27.7 25.5 100 0.0 ESE 24 35 13 19 1009.9 - 7.0
24/01:39pm 25.8 28.2 25.8 100 0.0 E 24 35 13 19 1009.8 - 1.4
24/01:30pm 25.7 28.0 25.7 100 0.0 E 24 35 13 19 1009.8 - 0.6
24/01:26pm 26.0 28.2 26.0 100 0.0 ESE 26 35 14 19 1009.9 - 0.6
24/01:08pm 27.2 27.7 26.1 94 0.8 ESE 35 57 19 31 1010.0 - 0.4
24/01:00pm 29.2 32.0 28.5 96 0.5 SE 32 44 17 24 1009.8 - 0.2
24/12:30pm 28.8 32.6 28.8 100 0.0 SE 28 41 15 22 1010.1 - 0.2
24/12:00pm 27.8 31.2 27.8 100 0.0 SE 26 39 14 21 1010.9 1010.9 0.2
24/11:30am 27.6 30.9 27.6 100 0.0 ESE 26 35 14 19 1011.3 - 0.2
24/11:00am 27.4 30.5 27.4 100 0.0 ESE 26 37 14 20 1011.7 - 0.2
24/10:36am 27.4 30.9 27.4 100 0.0 ESE 24 35 13 19 1011.6 - 0.2
24/10:30am 27.4 30.5 27.4 100 0.0 ESE 26 35 14 19 1011.5 - 0.0
24/10:16am 27.1 29.2 27.1 100 0.0 SE 30 44 16 24 1011.4 - 0.0
24/10:00am 27.0 29.8 27.0 100 0.0 SE 26 41 14 22 1011.4 - 0.0
24/09:30am 26.8 28.4 26.8 100 0.0 SE 32 50 17 27 1011.5 - 0.0
24/09:26am 26.9 28.5 26.9 100 0.0 SE 32 50 17 27 1011.5 - 0.0
24/09:19am 26.9 28.5 26.9 100 0.0 SE 32 43 17 23 1011.5 - 0.0
24/09:13am 26.7 28.9 26.7 100 0.0 SE 28 37 15 20 1011.6 - 0.0
24/09:00am 26.6 28.4 26.6 100 0.0 SE 30 44 16 24 1011.6 1011.6 26.2
24/08:48am 26.3 28.3 26.3 100 0.0 SE 28 43 15 23 1011.5 - 26.2
24/08:34am 26.4 28.4 26.4 100 0.0 ESE 28 48 15 26 1011.4 - 26.2
24/08:30am 27.0 - 27.2 - - ESE 22 35 12 19 1011.2 - 26.2
24/08:16am 26.8 - 27.0 - - SE 19 30 10 16 1011.0 - 26.2
24/08:00am 26.1 - 26.3 - - SE 15 22 8 12 1011.1 - 26.2
24/07:30am 26.0 29.9 26.0 100 0.0 SE 17 24 9 13 1011.0 - 24.6
24/07:10am 26.0 28.9 26.0 100 0.0 SSE 22 32 12 17 1010.7 - 24.6
24/07:00am 26.2 29.2 26.2 100 0.0 SE 22 30 12 16 1010.5 - 24.6
24/06:30am 26.0 29.5 26.0 100 0.0 SE 19 30 10 16 1009.8 - 24.6
24/06:15am 25.9 29.1 25.9 100 0.0 SE 20 28 11 15 1009.9 - 24.6
24/06:00am 25.9 29.1 25.9 100 0.0 ESE 20 28 11 15 1009.7 1009.7 24.6
24/05:30am 26.1 30.4 26.1 100 0.0 SE 15 20 8 11 1009.4 - 24.6
24/05:23am 26.1 30.0 26.1 100 0.0 SE 17 22 9 12 1009.3 - 24.6
24/05:00am 25.9 29.7 25.9 100 0.0 SE 17 24 9 13 1009.1 - 24.6
24/04:30am 25.9 29.7 25.9 100 0.0 SE 17 22 9 12 1009.3 - 24.6
24/04:00am 25.8 29.0 25.8 100 0.0 SE 20 32 11 17 1009.4 - 24.6
24/03:30am 26.8 31.2 26.8 100 0.0 SE 17 26 9 14 1009.4 - 24.6
24/03:00am 26.7 31.8 26.7 100 0.0 SE 13 19 7 10 1009.4 1009.4 24.6
24/02:30am 26.7 30.7 26.7 100 0.0 ESE 19 26 10 14 1009.6 - 24.6
24/02:00am 26.6 29.9 26.6 100 0.0 SE 22 33 12 18 1010.0 - 24.6
24/01:30am 26.7 31.4 26.7 100 0.0 SE 15 24 8 13 1010.1 - 24.6
24/01:00am 26.6 30.5 26.6 100 0.0 SE 19 22 10 12 1010.7 - 24.6
24/12:30am 26.3 30.7 26.3 100 0.0 SE 15 20 8 11 1011.0 - 24.6
24/12:00am 26.2 29.8 26.2 100 0.0 SE 19 24 10 13 1011.3 1011.3 24.6
 
Date/Time
EST
Temp
°C
App
Temp
°C
Dew
Point
°C
Rel
Hum
%
Delta-T
°C
Wind Press
QNH
hPa
Press
MSL
hPa
Rain since
9am
mm
Dir  Spd
km/h
Gust
km/h
Spd
kts
Gust
kts
23/11:53pm 26.0 29.5 26.0 100 0.0 SE 19 26 10 14 1011.5 - 24.6
23/11:35pm 26.4 29.1 26.2 99 0.1 ESE 24 43 13 23 1011.6 - 24.4
23/11:30pm 27.5 31.7 27.3 99 0.1 ESE 20 26 11 14 1011.4 - 23.4
23/11:00pm 27.5 30.9 27.3 99 0.1 ESE 24 32 13 17 1011.5 - 23.4
23/10:30pm 27.5 30.8 27.2 98 0.2 ESE 24 37 13 20 1011.7 - 23.4
23/10:00pm 27.6 29.9 27.3 98 0.2 ESE 30 43 16 23 1011.6 - 23.4
23/09:30pm 27.4 30.7 27.2 99 0.1 ESE 24 32 13 17 1011.5 - 23.4
23/09:00pm 27.2 30.8 27.0 99 0.1 ESE 22 28 12 15 1011.5 1011.5 23.4
23/08:30pm 27.3 30.3 27.3 100 0.0 ESE 26 33 14 18 1010.8 - 23.4
23/08:00pm 27.2 30.9 27.2 100 0.0 ESE 22 33 12 18 1010.6 - 23.4
23/07:30pm 27.1 30.8 27.1 100 0.0 ESE 22 32 12 17 1010.2 - 23.4
23/07:00pm 27.1 30.8 27.1 100 0.0 ESE 22 32 12 17 1009.8 - 23.4
23/06:30pm 27.0 29.8 27.0 100 0.0 ESE 26 35 14 19 1009.5 - 23.4
23/06:00pm 26.9 28.9 26.9 100 0.0 ESE 30 41 16 22 1009.2 1009.2 23.4
23/05:30pm 26.7 29.3 26.7 100 0.0 ESE 26 39 14 21 1008.8 - 23.4
23/05:00pm 26.6 29.5 26.6 100 0.0 ESE 24 35 13 19 1008.6 - 23.4
23/04:49pm 26.4 28.1 26.4 100 0.0 ESE 30 41 16 22 1008.5 - 23.4
23/04:44pm 26.3 27.9 26.3 100 0.0 ESE 30 44 16 24 1008.5 - 23.4
23/04:33pm 26.0 27.0 26.0 100 0.0 ESE 32 43 17 23 1008.6 - 23.4
23/04:30pm 26.2 27.3 26.2 100 0.0 ESE 32 44 17 24 1008.6 - 23.4
23/04:14pm 27.0 29.1 27.0 100 0.0 ESE 30 43 16 23 1008.5 - 23.4
23/04:00pm 27.2 30.2 27.2 100 0.0 ESE 26 41 14 22 1008.6 - 23.4
23/03:45pm 27.0 29.5 27.0 100 0.0 ESE 28 46 15 25 1008.6 - 23.4
23/03:43pm 27.0 29.1 27.0 100 0.0 ESE 30 46 16 25 1008.6 - 23.4
23/03:30pm 26.8 28.7 26.8 100 0.0 ESE 30 41 16 22 1008.7 - 23.4
23/03:28pm 26.8 28.7 26.8 100 0.0 ESE 30 41 16 22 1008.7 - 23.4
23/03:22pm 26.7 - 26.9 - - ESE 26 41 14 22 1008.7 - 23.4
23/03:00pm 26.7 - 26.9 - - ESE 20 30 11 16 1008.9 1008.9 23.4
23/02:57pm 26.7 - 26.9 - - ESE 20 30 11 16 1008.9 - 23.4
23/02:30pm 26.4 - 26.6 - - ESE 24 33 13 18 1009.2 - 23.4
23/02:18pm 25.9 - 26.1 - - ESE 22 32 12 17 1009.2 - 23.4
23/02:00pm 25.7 - 26.0 - - E 28 43 15 23 1009.6 - 23.4
23/01:43pm 25.4 - 25.6 - - E 32 43 17 23 1009.9 - 20.6
23/01:30pm 26.7 - 26.9 - - ESE 19 28 10 15 1009.9 - 19.8
23/01:14pm 26.5 - 26.8 - - ESE 15 22 8 12 1010.0 - 19.8
23/01:00pm 26.2 - 26.5 - - SE 15 22 8 12 1010.1 - 19.8
23/12:52pm 25.9 - 26.2 - - ESE 13 17 7 9 1010.2 - 19.8
23/12:45pm 25.9 - 26.2 - - ESE 15 20 8 11 1010.3 - 19.8
23/12:30pm 25.1 - 25.3 - - E 20 33 11 18 1010.9 - 19.8
23/12:03pm 26.0 - 26.2 - - E 22 37 12 20 1011.4 - 12.6
23/12:00pm 25.9 - 26.1 - - E 20 37 11 20 1011.5 1011.5 11.8
23/11:51am 26.2 - 26.4 - - ESE 19 26 10 14 1011.4 - 11.6
23/11:30am 26.2 - 26.4 - - ESE 17 24 9 13 1011.5 - 11.6
23/11:00am 25.8 - 26.1 - - ESE 19 28 10 15 1012.0 - 11.2
23/10:30am 25.5 - 25.8 - - E 20 28 11 15 1012.4 - 10.8
23/10:15am 25.2 - 25.5 - - E 20 30 11 16 1012.5 - 10.0
23/10:00am 24.9 - 25.1 - - E 22 32 12 17 1012.4 - 9.2
23/09:36am 24.7 - 24.9 - - E 26 37 14 20 1012.3 - 7.6
23/09:30am 24.6 - 24.8 - - E 28 44 15 24 1012.2 - 7.2
23/09:00am 24.8 - 25.0 - - E 33 54 18 29 1012.1 1012.1 143.8
23/08:57am 25.1 - 25.3 - - E 30 54 16 29 1012.0 - 142.8
23/08:30am 26.2 - 26.5 - - ESE 19 24 10 13 1011.4 - 140.2
23/08:23am 26.2 - 26.5 - - E 19 24 10 13 1011.3 - 139.4
23/08:01am 26.0 - 26.3 - - SE 15 20 8 11 1010.9 - 137.8
23/08:00am 26.0 - 26.3 - - SE 15 20 8 11 1010.9 - 137.8
23/07:42am 25.9 - 26.2 - - ESE 15 22 8 12 1010.9 - 137.0
23/07:30am 25.7 - 26.0 - - SE 13 19 7 10 1010.7 - 137.0
23/07:00am 25.3 - 25.6 - - SE 13 15 7 8 1009.8 - 136.6
23/06:30am 25.2 - 25.5 - - SE 13 19 7 10 1009.5 - 136.4
23/06:00am 25.2 - 25.5 - - SSE 17 24 9 13 1009.4 1009.4 136.2
23/05:30am 25.2 - 25.5 - - SSE 15 22 8 12 1009.4 - 135.6
23/05:00am 25.1 - 25.4 - - SE 15 22 8 12 1009.2 - 135.0
23/04:54am 25.1 - 25.4 - - SE 13 20 7 11 1009.3 - 135.0
23/04:30am 25.2 - 25.5 - - SSE 15 22 8 12 1009.1 - 134.8
23/04:10am 25.0 - 25.5 - - SE 15 22 8 12 1009.3 - 134.6
23/04:00am 24.9 - 25.4 - - SE 17 26 9 14 1009.3 - 134.6
23/03:58am 24.9 - 25.4 - - SE 17 26 9 14 1009.3 - 134.2
23/03:30am 24.9 - 25.4 - - ESE 22 30 12 16 1009.8 - 126.4
23/03:00am 24.1 - 24.4 - - ENE 19 30 10 16 1009.6 1009.6 109.2
23/02:30am 23.7 - 23.9 - - ENE 24 41 13 22 1010.3 - 69.2
23/02:03am 25.2 - 25.4 - - SSE 11 22 6 12 1009.8 - 40.0
23/02:02am 25.2 - 25.4 - - SSE 11 20 6 11 1009.8 - 39.4
23/02:00am 25.3 - 25.5 - - SE 9 20 5 11 1009.7 - 38.6
23/01:41am 24.7 - 24.9 - - E 6 9 3 5 1010.0 - 37.8
23/01:30am 24.6 - 24.8 - - E 9 17 5 9 1010.2 - 37.2
23/01:00am 25.4 - 25.6 - - S 17 20 9 11 1010.3 - 37.2
23/12:50am 25.5 - 25.7 - - SSE 15 19 8 10 1010.6 - 37.2
23/12:38am 25.4 - 25.6 - - SE 17 24 9 13 1010.8 - 37.2
23/12:30am 25.3 - 25.5 - - SE 19 28 10 15 1010.9 - 37.2
23/12:25am 25.4 - 25.6 - - SE 20 32 11 17 1010.9 - 37.2
23/12:24am 25.3 - 25.5 - - SE 22 32 12 17 1011.0 - 37.0
23/12:00am 25.6 - 25.8 - - SE 19 32 10 17 1011.2 1011.2 36.6
 
Date/Time
EST
Temp
°C
App
Temp
°C
Dew
Point
°C
Rel
Hum
%
Delta-T
°C
Wind Press
QNH
hPa
Press
MSL
hPa
Rain since
9am
mm
Dir  Spd
km/h
Gust
km/h
Spd
kts
Gust
kts
22/11:58pm 25.8 - 26.0 - - SE 17 30 9 16 1011.2 - 36.6
22/11:30pm 25.7 - 25.9 - - SSE 17 24 9 13 1010.9 - 36.2
22/11:24pm 25.7 - 25.9 - - SSE 17 22 9 12 1010.9 - 36.2
22/11:10pm 25.8 - 26.0 - - SSE 15 24 8 13 1011.3 - 36.0
22/11:00pm 25.6 - 25.8 - - SE 9 17 5 9 1011.4 - 36.0
22/10:30pm 25.9 - 26.1 - - SSE 9 13 5 7 1011.4 - 27.2
22/10:00pm 25.8 - 26.0 - - E 9 13 5 7 1011.5 - 24.2
22/09:59pm 25.8 - 26.0 - - E 9 13 5 7 1011.5 - 24.2
22/09:30pm 26.1 - 26.3 - - SE 17 28 9 15 1011.1 - 23.2
22/09:13pm 26.0 - 26.2 - - SSE 13 17 7 9 1011.0 - 23.2
22/09:03pm 26.0 - 26.2 - - SE 15 24 8 13 1010.9 - 23.2
22/09:00pm 26.0 - 26.2 - - ESE 17 24 9 13 1010.9 1010.9 23.2
22/08:30pm 25.7 28.4 25.7 100 0.0 E 22 30 12 16 1010.8 - 19.0
22/08:18pm 26.3 30.4 26.3 100 0.0 ESE 17 22 9 12 1010.5 - 17.0
22/08:00pm 26.1 30.0 26.1 100 0.0 E 17 24 9 13 1010.0 - 17.0
22/07:30pm 26.6 29.9 26.6 100 0.0 E 22 35 12 19 1009.5 - 17.0
22/07:00pm 26.3 29.4 26.3 100 0.0 ESE 22 33 12 18 1009.2 - 17.0
22/06:33pm 26.3 29.4 26.3 100 0.0 ESE 22 30 12 16 1008.8 - 17.0
22/06:30pm 26.3 29.4 26.3 100 0.0 ESE 22 30 12 16 1008.8 - 17.0
22/06:12pm 26.3 29.4 26.3 100 0.0 ESE 22 32 12 17 1008.7 - 17.0
22/06:11pm 26.3 29.4 26.3 100 0.0 ESE 22 32 12 17 1008.7 - 17.0
22/06:00pm 26.5 29.7 26.5 100 0.0 ESE 22 35 12 19 1008.7 1008.7 17.0
22/05:30pm 26.6 29.5 26.6 100 0.0 ESE 24 35 13 19 1009.0 - 17.0
22/05:28pm 26.6 29.5 26.6 100 0.0 ESE 24 35 13 19 1009.0 - 17.0
22/05:00pm 26.0 29.3 26.0 100 0.0 ESE 20 28 11 15 1008.8 - 17.0
22/04:30pm 26.1 28.7 26.1 100 0.0 ESE 24 35 13 19 1008.4 - 17.0
22/04:00pm 26.1 29.5 26.1 100 0.0 SE 20 30 11 16 1008.5 - 17.0
22/03:41pm 26.1 28.7 26.1 100 0.0 SE 24 37 13 20 1008.5 - 17.0
22/03:32pm 25.9 - 26.1 - - SE 26 37 14 20 1008.5 - 17.0
22/03:30pm 25.9 - 26.1 - - SE 24 35 13 19 1008.6 - 17.0
22/03:06pm 25.6 28.6 25.6 100 0.0 E 20 32 11 17 1008.7 - 15.6
22/03:00pm 26.2 - 26.4 - - SE 17 32 9 17 1008.7 1008.7 14.6
22/02:45pm 26.0 28.5 26.0 100 0.0 SE 24 37 13 20 1008.8 - 14.4
22/02:40pm 26.0 28.2 26.0 100 0.0 SSE 26 37 14 20 1008.7 - 13.8
22/02:30pm 27.0 32.3 27.0 100 0.0 SSE 13 20 7 11 1008.8 - 12.4
22/02:00pm 27.3 32.0 27.3 100 0.0 SE 17 22 9 12 1009.0 - 12.4
22/01:30pm 26.8 31.6 26.8 100 0.0 ESE 15 22 8 12 1009.3 - 12.4
22/01:00pm 26.1 29.5 26.1 100 0.0 E 20 32 11 17 1009.5 - 12.4
22/12:40pm 26.8 30.3 26.8 100 0.0 ESE 22 35 12 19 1009.8 - 12.4
22/12:30pm 26.8 - 27.0 - - SE 19 26 10 14 1010.0 - 12.4
22/12:05pm 26.5 - 26.7 - - SE 15 20 8 11 1010.3 - 12.4
22/12:02pm 26.4 - 26.6 - - SE 15 26 8 14 1010.3 - 12.4
22/12:00pm 26.5 - 26.7 - - ESE 15 26 8 14 1010.3 1010.3 12.4
22/11:44am 26.1 - 26.3 - - ESE 22 33 12 18 1010.5 - 12.4
22/11:30am 25.9 - 26.1 - - ESE 26 37 14 20 1010.8 - 12.0
22/11:18am 25.6 - 25.8 - - ESE 30 48 16 26 1010.8 - 12.0
22/11:14am 25.4 - 25.6 - - ESE 30 48 16 26 1010.8 - 12.0
22/11:13am 25.6 - 25.8 - - ESE 28 39 15 21 1010.8 - 12.0
22/11:00am 25.3 - 25.5 - - ESE 28 37 15 20 1010.8 - 12.0
22/10:48am 25.3 - 25.5 - - E 28 48 15 26 1010.9 - 9.2
22/10:30am 26.2 - 26.4 - - ESE 19 24 10 13 1010.8 - 6.0
22/10:23am 26.1 29.7 26.1 100 0.0 E 19 22 10 12 1010.9 - 5.0
22/10:07am 26.6 30.3 26.6 100 0.0 SE 20 30 11 16 1010.7 - 0.2
22/10:00am 26.9 30.4 26.9 100 0.0 SE 22 30 12 16 1010.8 - 0.0
22/09:39am 27.0 30.2 27.0 100 0.0 SE 24 35 13 19 1010.6 - 0.0
22/09:30am 27.0 30.2 27.0 100 0.0 ESE 24 35 13 19 1010.4 - 0.0
22/09:11am 26.6 - 26.8 - - ESE 26 35 14 19 1010.4 - 0.0
22/09:09am 26.6 - 26.8 - - SE 26 35 14 19 1010.4 - 0.0

Other Formats:

Comma delimited format used in spreadsheet applications
http://www.bom.gov.au/fwo/IDQ60801/IDQ60801.94174.axf

JavaScript Object Notation format (JSON) in row-major order
http://www.bom.gov.au/fwo/IDQ60801/IDQ60801.94174.json